Time;durP1;ratioP1;P1;durP2;ratioP2;P2;SDS_P1;SDS_P2;PMS_P1;PMS_P2;Temp;Humidity;BMP_temperature;BMP_pressure;BME280_temperature;BME280_humidity;BME280_pressure;Samples;Min_cycle;Max_cycle;Signal;HPM_P1;HPM_P2
2023/12/31 00:03:28;;;;;;;2.43;1.07;;;10.50;97.50;;;;;;10304456;28;20285;-64
2023/12/31 00:08:32;;;;;;;1.60;0.97;;;10.50;97.80;;;;;;10313190;28;20217;-62
2023/12/31 00:13:35;;;;;;;0.80;0.77;;;10.50;97.70;;;;;;10296126;28;20217;-63
2023/12/31 00:18:44;;;;;;;1.00;0.90;;;10.50;97.90;;;;;;10316768;28;20330;-62
2023/12/31 00:23:48;;;;;;;2.30;0.90;;;10.50;98.40;;;;;;10313922;28;20280;-63
2023/12/31 00:28:52;;;;;;;2.70;1.10;;;10.50;98.50;;;;;;10310618;28;20226;-63
2023/12/31 00:33:57;;;;;;;1.70;1.10;;;10.50;98.30;;;;;;10314878;28;20222;-62
2023/12/31 00:39:08;;;;;;;2.63;1.20;;;10.50;98.20;;;;;;10314221;28;20597;-61
2023/12/31 00:44:11;;;;;;;3.13;1.37;;;10.50;98.80;;;;;;10317523;28;20225;-62
2023/12/31 00:49:16;;;;;;;1.60;1.20;;;10.50;98.10;;;;;;10318055;28;20249;-60
2023/12/31 00:54:22;;;;;;;2.13;1.17;;;10.40;98.40;;;;;;10314875;28;20290;-62
2023/12/31 00:59:28;;;;;;;2.63;1.70;;;10.50;99.30;;;;;;10328245;28;20882;-62
2023/12/31 01:04:36;;;;;;;2.33;1.60;;;10.40;99.20;;;;;;10318534;28;20284;-61
2023/12/31 01:09:40;;;;;;;2.73;2.00;;;10.40;98.70;;;;;;10319754;28;20241;-61
2023/12/31 01:14:44;;;;;;;4.27;2.23;;;10.40;99.10;;;;;;10315406;28;20326;-63
2023/12/31 01:19:49;;;;;;;3.37;2.33;;;10.40;98.80;;;;;;10316410;28;20248;-62
2023/12/31 01:24:52;;;;;;;3.47;2.03;;;10.50;99.50;;;;;;10321916;28;20288;-63
2023/12/31 01:29:56;;;;;;;3.47;2.30;;;10.40;99.30;;;;;;10308530;28;20288;-62
2023/12/31 01:35:05;;;;;;;2.60;2.40;;;10.40;99.20;;;;;;10313264;28;20731;-62
2023/12/31 01:40:11;;;;;;;2.65;1.85;;;10.40;99.00;;;;;;10308724;28;20268;-63
2023/12/31 01:45:15;;;;;;;4.67;2.10;;;10.40;99.30;;;;;;10317285;28;20233;-62
2023/12/31 01:50:23;;;;;;;2.77;2.20;;;10.40;98.60;;;;;;10315092;28;21462;-62
2023/12/31 01:55:26;;;;;;;2.30;1.90;;;10.40;98.90;;;;;;10318746;28;20234;-63
2023/12/31 02:00:30;;;;;;;2.10;1.90;;;10.40;98.50;;;;;;10309449;28;20217;-63
2023/12/31 02:05:36;;;;;;;5.30;1.90;;;10.50;98.60;;;;;;10319035;28;20245;-60
2023/12/31 02:10:39;;;;;;;3.60;2.03;;;10.50;98.50;;;;;;10314040;28;20630;-62
2023/12/31 02:15:43;;;;;;;4.03;1.60;;;10.50;98.40;;;;;;10310345;28;20221;-62
2023/12/31 02:20:48;;;;;;;1.97;1.60;;;10.50;97.80;;;;;;10316021;28;20622;-62
2023/12/31 02:26:05;;;;;;;2.23;1.50;;;10.50;98.10;;;;;;10306965;28;20281;-61
2023/12/31 02:31:09;;;;;;;1.87;1.70;;;10.50;97.70;;;;;;10315649;28;20221;-62
2023/12/31 02:36:12;;;;;;;2.13;1.70;;;10.50;97.90;;;;;;10318446;28;20226;-61
2023/12/31 02:41:17;;;;;;;2.90;1.83;;;10.50;98.30;;;;;;10312364;28;20261;-60
2023/12/31 02:46:21;;;;;;;3.57;2.20;;;10.50;98.00;;;;;;10314619;28;20279;-63
2023/12/31 02:51:24;;;;;;;3.00;1.83;;;10.50;98.00;;;;;;10313594;28;20244;-61
2023/12/31 02:56:29;;;;;;;2.23;1.50;;;10.50;97.80;;;;;;10315355;28;20645;-62
2023/12/31 03:01:33;;;;;;;2.37;1.33;;;10.50;98.00;;;;;;10308796;28;20222;-60
2023/12/31 03:06:39;;;;;;;2.30;1.93;;;10.50;98.30;;;;;;10319481;28;20229;-60
2023/12/31 03:11:44;;;;;;;1.73;1.63;;;10.50;97.90;;;;;;10311784;28;20217;-60
2023/12/31 03:16:47;;;;;;;2.45;1.65;;;10.50;97.40;;;;;;10310483;28;20222;-62
2023/12/31 03:21:51;;;;;;;1.65;1.50;;;10.50;98.40;;;;;;10307429;28;20260;-61
2023/12/31 03:26:58;;;;;;;2.03;1.50;;;10.50;98.00;;;;;;10304117;28;20233;-61
2023/12/31 03:32:04;;;;;;;2.03;1.70;;;10.50;98.30;;;;;;10312305;28;20272;-64
2023/12/31 03:37:09;;;;;;;2.85;1.73;;;10.50;98.40;;;;;;10312735;28;20226;-63
2023/12/31 03:42:14;;;;;;;2.63;1.67;;;10.50;98.60;;;;;;10309523;28;20197;-61
2023/12/31 03:47:23;;;;;;;2.20;1.70;;;10.50;98.60;;;;;;10313326;28;20255;-61
2023/12/31 03:52:27;;;;;;;2.67;1.70;;;10.50;98.40;;;;;;10315647;28;20229;-63
2023/12/31 03:57:34;;;;;;;2.50;2.30;;;10.50;98.40;;;;;;10314452;28;20226;-62
2023/12/31 04:02:38;;;;;;;3.20;1.70;;;10.50;98.80;;;;;;10318062;28;20260;-62
2023/12/31 04:07:44;;;;;;;2.35;1.70;;;10.50;98.50;;;;;;10304072;28;20205;-63
2023/12/31 04:12:53;;;;;;;4.13;1.77;;;10.50;98.50;;;;;;10315146;28;20225;-62
2023/12/31 04:18:02;;;;;;;3.17;2.10;;;10.50;98.30;;;;;;10329316;28;20214;-61
2023/12/31 04:23:06;;;;;;;4.60;2.10;;;10.50;99.10;;;;;;10326840;28;20292;-62
2023/12/31 04:28:16;;;;;;;2.25;1.92;;;10.50;99.40;;;;;;10319280;28;20241;-63
2023/12/31 04:33:25;;;;;;;3.25;2.20;;;10.50;98.60;;;;;;10308720;28;20218;-63
2023/12/31 04:38:34;;;;;;;1.73;1.60;;;10.50;98.50;;;;;;10320475;28;20197;-63
2023/12/31 04:43:41;;;;;;;2.47;1.63;;;10.50;98.60;;;;;;10315259;28;20253;-63
2023/12/31 04:48:50;;;;;;;2.20;1.80;;;10.50;98.60;;;;;;10310956;28;20246;-63
2023/12/31 04:53:59;;;;;;;2.57;2.00;;;10.50;98.70;;;;;;10311559;28;20234;-63
2023/12/31 04:59:09;;;;;;;3.80;1.80;;;10.50;98.60;;;;;;10325905;28;20197;-63
2023/12/31 05:04:18;;;;;;;2.88;1.80;;;10.60;98.20;;;;;;10323776;28;20226;-63
2023/12/31 05:09:25;;;;;;;2.77;1.50;;;10.50;98.20;;;;;;10320471;28;20783;-63
2023/12/31 05:14:33;;;;;;;2.17;1.50;;;10.50;98.20;;;;;;10309148;28;20233;-64
2023/12/31 05:19:40;;;;;;;2.08;1.30;;;10.60;98.60;;;;;;10316206;28;20203;-61
2023/12/31 05:24:47;;;;;;;2.13;1.37;;;10.60;98.10;;;;;;10311002;28;20234;-62
2023/12/31 05:29:58;;;;;;;3.63;1.30;;;10.60;98.50;;;;;;10320780;28;20222;-62
2023/12/31 05:35:03;;;;;;;1.60;1.10;;;10.60;97.60;;;;;;10319096;28;20299;-61
2023/12/31 05:40:14;;;;;;;1.50;1.40;;;10.60;97.30;;;;;;10320789;28;20206;-63
2023/12/31 05:45:24;;;;;;;1.63;1.53;;;10.60;97.10;;;;;;10309065;28;20226;-61
2023/12/31 05:50:30;;;;;;;2.60;1.53;;;10.70;97.60;;;;;;10318265;28;20268;-63
2023/12/31 05:55:36;;;;;;;2.77;1.50;;;10.70;97.80;;;;;;10313632;28;20497;-62
2023/12/31 06:00:46;;;;;;;3.53;1.43;;;10.70;97.40;;;;;;10308577;28;20245;-62
2023/12/31 06:05:52;;;;;;;1.50;1.40;;;10.70;97.60;;;;;;10316545;28;20230;-62
2023/12/31 06:11:01;;;;;;;2.63;1.70;;;10.70;97.20;;;;;;10308423;28;20225;-61
2023/12/31 06:16:07;;;;;;;2.07;1.40;;;10.70;97.80;;;;;;10314095;28;20221;-61
2023/12/31 06:21:15;;;;;;;1.52;1.35;;;10.70;97.70;;;;;;10321940;28;20574;-60
2023/12/31 06:26:21;;;;;;;2.07;1.80;;;10.70;97.10;;;;;;10315938;28;20222;-62
2023/12/31 06:31:32;;;;;;;3.15;1.95;;;10.70;98.00;;;;;;10313864;28;20229;-61
2023/12/31 06:36:38;;;;;;;1.70;1.48;;;10.80;98.00;;;;;;10313024;28;20249;-62
2023/12/31 06:41:44;;;;;;;1.40;1.30;;;10.70;97.00;;;;;;10309586;28;20258;-60
2023/12/31 06:46:52;;;;;;;1.70;1.50;;;10.70;97.50;;;;;;10307153;28;20230;-62
2023/12/31 06:51:56;;;;;;;1.88;1.40;;;10.70;97.30;;;;;;10314340;28;20214;-61
2023/12/31 06:57:01;;;;;;;1.93;1.30;;;10.70;97.30;;;;;;10315471;28;20222;-62
2023/12/31 07:02:14;;;;;;;1.98;1.65;;;10.70;97.80;;;;;;10305104;28;20560;-61
2023/12/31 07:07:23;;;;;;;2.33;1.88;;;10.70;97.00;;;;;;10317926;28;20226;-63
2023/12/31 07:12:26;;;;;;;3.87;1.80;;;10.70;97.40;;;;;;10318739;28;20291;-61
2023/12/31 07:17:31;;;;;;;2.80;1.60;;;10.70;98.20;;;;;;10312879;28;20256;-63
2023/12/31 07:22:35;;;;;;;1.67;1.57;;;10.80;98.00;;;;;;10315968;28;20543;-62
2023/12/31 07:27:39;;;;;;;2.10;1.45;;;10.80;98.00;;;;;;10316303;28;20650;-63
2023/12/31 07:32:44;;;;;;;1.65;1.50;;;10.80;97.80;;;;;;10308036;28;20225;-64
2023/12/31 07:37:47;;;;;;;2.03;1.50;;;10.90;97.30;;;;;;10305701;28;20758;-63
2023/12/31 07:42:51;;;;;;;5.57;1.90;;;10.90;97.40;;;;;;10319496;28;20529;-62
2023/12/31 07:47:56;;;;;;;2.30;1.80;;;10.90;97.00;;;;;;10312798;28;20206;-64
2023/12/31 07:53:00;;;;;;;2.40;1.67;;;10.90;96.90;;;;;;10305519;28;20260;-63
2023/12/31 07:58:03;;;;;;;1.70;1.52;;;10.90;96.70;;;;;;10308602;28;20201;-62
2023/12/31 08:03:08;;;;;;;1.87;1.67;;;10.90;96.10;;;;;;10297734;28;20226;-61
2023/12/31 08:08:12;;;;;;;3.20;2.10;;;11.00;95.70;;;;;;10309918;28;20252;-63
2023/12/31 08:13:15;;;;;;;2.20;2.00;;;11.00;96.10;;;;;;10305745;28;20482;-64
2023/12/31 08:18:20;;;;;;;2.33;1.80;;;11.10;95.30;;;;;;10314956;28;20201;-64
2023/12/31 08:23:24;;;;;;;1.65;1.50;;;11.20;95.90;;;;;;10311617;28;20209;-63
2023/12/31 08:28:28;;;;;;;2.35;1.27;;;11.20;96.10;;;;;;10314970;28;20277;-64
2023/12/31 08:33:35;;;;;;;2.35;1.70;;;11.20;96.00;;;;;;10312009;28;20656;-61
2023/12/31 08:38:39;;;;;;;2.45;1.60;;;11.20;96.20;;;;;;10311474;28;20201;-61
2023/12/31 08:43:43;;;;;;;1.52;1.40;;;11.20;95.30;;;;;;10306984;28;20218;-61
2023/12/31 08:48:49;;;;;;;2.77;2.10;;;11.30;95.60;;;;;;10314494;28;20202;-62
2023/12/31 08:53:52;;;;;;;2.20;1.60;;;11.30;96.10;;;;;;10312187;28;20230;-63
2023/12/31 08:58:56;;;;;;;1.73;1.58;;;11.30;95.90;;;;;;10311260;28;20228;-63
2023/12/31 09:04:01;;;;;;;1.90;1.70;;;11.30;96.00;;;;;;10313685;28;20283;-63
2023/12/31 09:09:05;;;;;;;2.72;1.50;;;11.30;95.60;;;;;;10311250;28;20651;-63
2023/12/31 09:14:12;;;;;;;2.00;1.80;;;11.30;95.80;;;;;;10318857;28;20256;-63
2023/12/31 09:19:17;;;;;;;2.72;1.80;;;11.30;95.90;;;;;;10318735;28;20559;-63
2023/12/31 09:24:21;;;;;;;2.85;2.30;;;11.30;95.40;;;;;;10320231;28;20222;-64
2023/12/31 09:29:24;;;;;;;2.65;1.85;;;11.40;95.50;;;;;;10314624;28;20206;-63
2023/12/31 09:34:29;;;;;;;1.98;1.77;;;11.40;96.10;;;;;;10312435;28;20229;-62
2023/12/31 09:39:33;;;;;;;2.50;1.85;;;11.50;95.80;;;;;;10314353;28;20608;-63
2023/12/31 09:44:36;;;;;;;2.38;2.17;;;11.50;95.80;;;;;;10316589;28;20545;-63
2023/12/31 09:49:43;;;;;;;2.65;1.95;;;11.50;95.90;;;;;;10316154;28;20581;-63
2023/12/31 09:54:47;;;;;;;2.20;2.00;;;11.50;96.20;;;;;;10313172;28;20229;-64
2023/12/31 09:59:52;;;;;;;2.92;2.20;;;11.60;96.10;;;;;;10317445;28;20209;-63
2023/12/31 10:04:57;;;;;;;2.63;2.35;;;11.60;95.30;;;;;;10310247;28;20221;-63
2023/12/31 10:10:02;;;;;;;2.90;2.47;;;11.70;95.20;;;;;;10309426;28;20205;-62
2023/12/31 10:15:08;;;;;;;3.22;2.92;;;11.70;95.10;;;;;;10307942;28;20738;-63
2023/12/31 10:20:13;;;;;;;2.45;2.20;;;11.70;95.20;;;;;;10311587;28;20195;-63
2023/12/31 10:25:19;;;;;;;3.28;2.30;;;11.70;95.60;;;;;;10309883;28;20246;-63
2023/12/31 10:30:23;;;;;;;2.80;2.22;;;11.80;95.10;;;;;;10310975;28;20737;-63
2023/12/31 10:35:28;;;;;;;2.97;2.60;;;11.90;94.60;;;;;;10311796;28;20261;-62
2023/12/31 10:40:33;;;;;;;2.67;2.35;;;11.90;94.60;;;;;;10311831;28;20281;-62
2023/12/31 10:45:39;;;;;;;3.00;2.60;;;12.00;94.40;;;;;;10314311;28;20244;-63
2023/12/31 10:50:47;;;;;;;2.50;2.30;;;12.00;94.30;;;;;;10303075;28;20303;-63
2023/12/31 10:55:52;;;;;;;3.10;2.30;;;12.10;94.10;;;;;;10307962;28;20299;-63
2023/12/31 11:00:56;;;;;;;2.95;2.10;;;12.00;93.40;;;;;;10313442;28;20206;-62
2023/12/31 11:06:03;;;;;;;2.30;2.10;;;12.00;93.70;;;;;;10308931;28;20727;-62
2023/12/31 11:11:06;;;;;;;1.73;1.63;;;12.10;93.60;;;;;;10309234;28;20201;-63
2023/12/31 11:16:34;;;;;;;1.88;1.30;;;12.10;93.10;;;;;;10317563;28;20710;-63
2023/12/31 11:21:52;;;;;;;2.10;1.50;;;12.10;92.30;;;;;;10318925;28;20201;-61
2023/12/31 11:27:08;;;;;;;2.40;1.75;;;12.10;91.90;;;;;;10314560;28;20213;-63
2023/12/31 11:32:12;;;;;;;1.55;1.45;;;12.10;92.00;;;;;;10320464;28;20594;-62
2023/12/31 11:37:17;;;;;;;1.25;1.00;;;12.10;92.10;;;;;;10312285;28;20222;-62
2023/12/31 11:42:21;;;;;;;1.05;0.95;;;12.00;91.70;;;;;;10314265;28;20229;-64
2023/12/31 11:47:26;;;;;;;2.35;1.02;;;12.00;91.90;;;;;;10312021;28;20225;-61
2023/12/31 11:52:42;;;;;;;1.50;0.70;;;11.90;91.50;;;;;;10308327;28;20700;-63
2023/12/31 11:57:46;;;;;;;1.07;0.80;;;11.80;92.20;;;;;;10316969;28;20205;-63
2023/12/31 12:02:51;;;;;;;0.98;0.60;;;11.80;92.20;;;;;;10308865;28;20264;-64
2023/12/31 12:07:56;;;;;;;1.10;0.60;;;11.70;92.00;;;;;;10307762;28;20206;-63
2023/12/31 12:13:01;;;;;;;2.03;0.77;;;11.60;92.60;;;;;;10314009;28;20257;-61
2023/12/31 12:18:17;;;;;;;1.95;0.80;;;11.50;92.80;;;;;;10309493;28;20238;-62
2023/12/31 12:23:24;;;;;;;1.60;0.40;;;11.40;92.90;;;;;;10307182;28;20271;-62
2023/12/31 12:28:28;;;;;;;0.70;0.40;;;11.30;92.70;;;;;;10312233;28;20681;-63
2023/12/31 12:33:31;;;;;;;0.85;0.57;;;11.20;93.30;;;;;;10310508;28;20225;-63
2023/12/31 12:38:37;;;;;;;0.57;0.57;;;11.10;93.60;;;;;;10319095;28;20205;-63
2023/12/31 12:43:41;;;;;;;2.50;0.82;;;11.10;93.70;;;;;;10320988;28;20545;-62
2023/12/31 12:48:49;;;;;;;2.63;0.73;;;11.10;94.00;;;;;;10312846;28;20283;-62
2023/12/31 12:53:54;;;;;;;1.13;0.30;;;11.00;94.40;;;;;;10319433;28;20249;-62
2023/12/31 12:58:58;;;;;;;1.30;0.50;;;11.00;94.40;;;;;;10318224;28;20265;-63
2023/12/31 13:04:01;;;;;;;1.10;0.80;;;10.90;94.90;;;;;;10313221;28;20896;-64
2023/12/31 13:09:06;;;;;;;1.08;0.50;;;11.00;95.20;;;;;;10310404;28;20201;-63
2023/12/31 13:14:10;;;;;;;1.50;0.67;;;11.00;94.60;;;;;;10318794;28;20225;-64
2023/12/31 13:19:13;;;;;;;1.53;0.50;;;11.00;94.30;;;;;;10315592;28;20659;-64
2023/12/31 13:24:20;;;;;;;0.68;0.30;;;11.00;94.30;;;;;;10319169;28;20287;-62
2023/12/31 13:29:23;;;;;;;2.57;0.60;;;11.00;94.10;;;;;;10315727;28;20769;-64
2023/12/31 13:34:27;;;;;;;3.95;0.82;;;10.90;94.00;;;;;;10315109;28;20331;-68
2023/12/31 13:39:32;;;;;;;2.90;1.10;;;10.80;93.10;;;;;;10316927;28;20287;-64
2023/12/31 13:44:37;;;;;;;3.07;0.80;;;10.70;93.80;;;;;;10315819;28;20221;-63
2023/12/31 13:49:41;;;;;;;2.90;1.00;;;10.60;93.90;;;;;;10318485;28;20658;-62
2023/12/31 13:54:46;;;;;;;3.07;0.80;;;10.60;94.30;;;;;;10317057;28;20237;-60
2023/12/31 13:59:50;;;;;;;3.40;1.00;;;10.50;93.90;;;;;;10317372;28;20196;-64
2023/12/31 14:04:55;;;;;;;3.80;0.80;;;10.50;93.60;;;;;;10319314;28;20271;-63
2023/12/31 14:10:00;;;;;;;2.50;0.67;;;10.40;93.00;;;;;;10313364;28;20293;-64
2023/12/31 14:15:06;;;;;;;1.07;0.57;;;10.20;92.20;;;;;;10315183;28;20253;-62
2023/12/31 14:20:11;;;;;;;1.40;0.60;;;10.20;92.50;;;;;;10318693;28;20202;-62
2023/12/31 14:25:16;;;;;;;1.73;0.93;;;10.30;92.40;;;;;;10314912;28;20225;-63
2023/12/31 14:30:20;;;;;;;1.70;0.60;;;10.30;92.80;;;;;;10323275;28;20670;-63
2023/12/31 14:35:24;;;;;;;1.63;0.77;;;10.30;92.90;;;;;;10314142;28;20279;-63
2023/12/31 14:40:29;;;;;;;2.00;0.90;;;10.30;93.20;;;;;;10317590;28;20197;-63
2023/12/31 14:45:34;;;;;;;4.53;1.10;;;10.30;92.70;;;;;;10315109;28;20210;-63
2023/12/31 14:50:37;;;;;;;2.93;0.87;;;10.20;93.30;;;;;;10318694;28;20201;-62
2023/12/31 14:55:43;;;;;;;3.40;0.97;;;10.20;93.10;;;;;;10311801;28;20221;-64
2023/12/31 15:00:47;;;;;;;2.50;1.00;;;10.20;93.60;;;;;;10318665;28;20202;-66
2023/12/31 15:05:51;;;;;;;2.03;1.10;;;10.10;94.00;;;;;;10317207;28;20222;-62
2023/12/31 15:10:56;;;;;;;2.00;0.93;;;10.10;93.60;;;;;;10314349;28;20261;-69
2023/12/31 15:16:00;;;;;;;2.88;0.90;;;10.10;93.50;;;;;;10311268;28;20589;-63
2023/12/31 15:21:03;;;;;;;4.60;1.50;;;10.00;93.40;;;;;;10316034;28;21312;-64
2023/12/31 15:26:08;;;;;;;7.03;1.23;;;10.00;93.80;;;;;;10313719;28;20560;-61
2023/12/31 15:31:12;;;;;;;5.05;1.42;;;10.00;94.50;;;;;;10311415;28;20206;-63
2023/12/31 15:36:17;;;;;;;8.60;1.40;;;10.00;94.60;;;;;;10310082;28;20230;-62
2023/12/31 15:41:22;;;;;;;5.53;1.27;;;10.00;94.30;;;;;;10318421;28;20252;-63
2023/12/31 15:46:25;;;;;;;4.70;1.67;;;9.90;95.80;;;;;;10316117;28;20709;-63
2023/12/31 15:51:31;;;;;;;7.33;2.93;;;9.90;96.00;;;;;;10321343;28;20201;-62
2023/12/31 15:56:36;;;;;;;7.97;4.30;;;9.90;95.90;;;;;;10314168;28;20268;-63
2023/12/31 16:01:40;;;;;;;7.03;4.20;;;10.00;95.50;;;;;;10319827;28;20822;-63
2023/12/31 16:06:43;;;;;;;7.93;4.27;;;10.00;95.60;;;;;;10311852;28;20229;-62
2023/12/31 16:11:48;;;;;;;4.70;2.20;;;10.00;95.80;;;;;;10320091;28;20252;-63
2023/12/31 16:16:52;;;;;;;5.43;2.30;;;10.00;95.50;;;;;;10316480;28;20284;-62
2023/12/31 16:21:55;;;;;;;6.80;2.13;;;10.00;95.80;;;;;;10319402;28;20269;-63
2023/12/31 16:27:00;;;;;;;8.23;2.00;;;10.00;95.80;;;;;;10319276;28;20217;-62
2023/12/31 16:32:04;;;;;;;8.47;2.63;;;10.00;95.30;;;;;;10322561;28;20214;-63
2023/12/31 16:37:08;;;;;;;9.70;2.23;;;10.00;94.70;;;;;;10311328;28;20253;-63
2023/12/31 16:42:13;;;;;;;9.80;2.97;;;10.00;93.60;;;;;;10318265;28;20210;-63
2023/12/31 16:47:20;;;;;;;9.57;3.00;;;10.10;94.10;;;;;;10307741;28;20222;-63
2023/12/31 16:52:24;;;;;;;11.27;3.20;;;10.10;94.50;;;;;;10313838;28;20210;-64
2023/12/31 16:57:29;;;;;;;18.25;9.60;;;10.10;94.50;;;;;;10314212;28;20292;-63
2023/12/31 17:02:32;;;;;;;29.57;19.40;;;10.20;94.70;;;;;;10312786;28;20213;-63
2023/12/31 17:07:36;;;;;;;20.20;10.50;;;10.20;95.00;;;;;;10315646;28;20264;-63
2023/12/31 17:12:41;;;;;;;17.50;9.07;;;10.20;95.00;;;;;;10320605;28;20199;-62
2023/12/31 17:17:45;;;;;;;10.73;5.17;;;10.20;94.00;;;;;;10315625;28;20276;-63
2023/12/31 17:22:48;;;;;;;10.30;4.17;;;10.30;94.80;;;;;;10306996;28;20686;-64
2023/12/31 17:27:53;;;;;;;10.17;2.97;;;10.30;95.10;;;;;;10315385;28;20280;-64
2023/12/31 17:32:57;;;;;;;11.00;3.33;;;10.30;94.80;;;;;;10323110;28;20206;-63
2023/12/31 17:38:01;;;;;;;11.77;2.80;;;10.30;94.10;;;;;;10318934;28;20280;-64
2023/12/31 17:43:06;;;;;;;9.87;2.30;;;10.30;94.20;;;;;;10314345;28;20628;-64
2023/12/31 17:48:10;;;;;;;5.63;2.57;;;10.30;93.40;;;;;;10317397;28;20271;-64
2023/12/31 17:53:14;;;;;;;10.83;2.60;;;10.30;93.50;;;;;;10325096;28;20229;-64
2023/12/31 17:58:19;;;;;;;8.13;2.43;;;10.30;93.30;;;;;;10319034;28;20230;-62
2023/12/31 18:03:23;;;;;;;6.10;2.60;;;10.30;93.30;;;;;;10319573;28;20234;-64
2023/12/31 18:08:27;;;;;;;9.43;2.83;;;10.30;93.20;;;;;;10313513;28;20256;-64
2023/12/31 18:13:32;;;;;;;11.13;2.87;;;10.30;92.70;;;;;;10315759;28;20241;-63
2023/12/31 18:18:37;;;;;;;11.07;3.20;;;10.30;92.40;;;;;;10313335;28;20644;-63
2023/12/31 18:23:41;;;;;;;11.03;2.73;;;10.30;92.70;;;;;;10319991;28;20230;-60
2023/12/31 18:28:46;;;;;;;12.60;5.55;;;10.40;92.60;;;;;;10308601;28;20253;-63
2023/12/31 18:33:49;;;;;;;11.33;3.63;;;10.40;92.70;;;;;;10322727;28;20229;-63
2023/12/31 18:38:53;;;;;;;10.53;3.63;;;10.40;92.70;;;;;;10319495;28;20230;-63
2023/12/31 18:43:58;;;;;;;7.57;2.57;;;10.40;92.40;;;;;;10320262;28;20693;-63
2023/12/31 18:49:01;;;;;;;14.43;3.20;;;10.40;92.20;;;;;;10323712;28;20268;-62
2023/12/31 18:54:07;;;;;;;12.70;3.03;;;10.40;93.10;;;;;;10316378;28;20291;-63
2023/12/31 18:59:13;;;;;;;9.73;3.22;;;10.50;93.30;;;;;;10313436;28;20206;-63
2023/12/31 19:04:17;;;;;;;9.20;2.93;;;10.50;92.60;;;;;;10310678;28;20284;-63
2023/12/31 19:09:20;;;;;;;10.37;3.50;;;10.50;92.50;;;;;;10310054;28;20603;-63
2023/12/31 19:14:25;;;;;;;6.70;2.85;;;10.50;92.90;;;;;;10318071;28;20697;-62
2023/12/31 19:19:31;;;;;;;8.98;3.40;;;10.50;92.60;;;;;;10309408;28;20213;-63
2023/12/31 19:24:35;;;;;;;11.73;3.77;;;10.50;92.60;;;;;;10314371;28;20252;-63
2023/12/31 19:29:40;;;;;;;14.03;5.70;;;10.50;92.30;;;;;;10311112;28;20254;-62
2023/12/31 19:34:43;;;;;;;9.32;2.83;;;10.50;92.90;;;;;;10308593;28;20240;-64
2023/12/31 19:39:47;;;;;;;8.37;2.60;;;10.40;92.20;;;;;;10309187;28;20205;-63
2023/12/31 19:44:52;;;;;;;9.30;2.33;;;10.50;93.00;;;;;;10320070;28;20217;-63
2023/12/31 19:49:55;;;;;;;8.13;2.57;;;10.40;92.60;;;;;;10314526;28;20273;-64
2023/12/31 19:55:02;;;;;;;11.67;2.83;;;10.50;92.60;;;;;;10309873;28;20689;-64
2023/12/31 20:00:08;;;;;;;8.93;2.67;;;10.50;92.80;;;;;;10310102;28;20206;-63
2023/12/31 20:05:12;;;;;;;8.23;2.70;;;10.50;92.60;;;;;;10305193;28;20226;-64
2023/12/31 20:10:20;;;;;;;8.00;2.60;;;10.50;92.70;;;;;;10304097;28;20262;-63
2023/12/31 20:15:26;;;;;;;10.80;2.50;;;10.40;92.10;;;;;;10321865;28;20603;-64
2023/12/31 20:20:29;;;;;;;7.63;2.30;;;10.50;92.60;;;;;;10316774;28;20205;-63
2023/12/31 20:25:33;;;;;;;8.77;2.70;;;10.50;92.20;;;;;;10315622;28;20222;-61
2023/12/31 20:30:38;;;;;;;8.23;2.47;;;10.40;92.00;;;;;;10314873;28;20256;-64
2023/12/31 20:35:42;;;;;;;8.10;2.47;;;10.40;91.80;;;;;;10313699;28;20744;-64
2023/12/31 20:40:45;;;;;;;8.63;2.33;;;10.40;92.50;;;;;;10313708;28;20268;-64
2023/12/31 20:45:53;;;;;;;7.90;2.57;;;10.40;92.70;;;;;;10309749;28;20248;-64
2023/12/31 20:50:57;;;;;;;6.80;2.40;;;10.30;92.70;;;;;;10319263;28;20198;-63
2023/12/31 20:56:00;;;;;;;12.30;2.80;;;10.20;93.10;;;;;;10308242;28;20226;-64
2023/12/31 21:01:06;;;;;;;7.60;2.30;;;10.20;93.60;;;;;;10322841;28;20261;-63
2023/12/31 21:06:10;;;;;;;5.90;2.45;;;10.20;93.30;;;;;;10324232;28;20226;-63
2023/12/31 21:11:14;;;;;;;6.85;2.60;;;10.20;93.90;;;;;;10309837;28;20292;-63
2023/12/31 21:16:19;;;;;;;6.03;3.07;;;10.10;94.10;;;;;;10317726;28;20285;-63
2023/12/31 21:21:22;;;;;;;9.33;3.23;;;10.10;94.00;;;;;;10315002;28;20209;-63
2023/12/31 21:26:26;;;;;;;7.22;2.40;;;10.00;94.10;;;;;;10316880;28;20217;-62
2023/12/31 21:31:32;;;;;;;10.00;3.50;;;10.00;94.60;;;;;;10310051;28;20257;-62
2023/12/31 21:36:39;;;;;;;9.27;2.83;;;10.00;94.90;;;;;;10314341;28;20582;-62
2023/12/31 21:41:43;;;;;;;8.23;2.83;;;9.90;95.30;;;;;;10313945;28;20197;-63
2023/12/31 21:46:50;;;;;;;8.33;2.93;;;9.90;95.60;;;;;;10322204;28;20677;-62
2023/12/31 21:51:54;;;;;;;9.50;5.65;;;9.80;95.30;;;;;;10318908;28;20205;-63
2023/12/31 21:56:57;;;;;;;12.20;6.80;;;9.80;95.30;;;;;;10314989;28;20225;-63
2023/12/31 22:02:08;;;;;;;9.60;4.37;;;9.80;95.50;;;;;;10320685;28;20206;-63
2023/12/31 22:07:12;;;;;;;7.10;3.73;;;9.80;95.50;;;;;;10315052;28;20222;-63
2023/12/31 22:12:16;;;;;;;9.43;3.70;;;9.80;95.80;;;;;;10319430;28;20205;-63
2023/12/31 22:17:22;;;;;;;7.37;3.27;;;9.80;95.40;;;;;;10320518;28;20222;-63
2023/12/31 22:22:25;;;;;;;6.50;2.80;;;9.80;95.50;;;;;;10327899;28;20205;-63
2023/12/31 22:27:29;;;;;;;6.97;2.97;;;9.80;96.10;;;;;;10315891;28;20209;-63
2023/12/31 22:32:34;;;;;;;6.90;2.70;;;9.80;95.30;;;;;;10318314;28;20206;-64
2023/12/31 22:37:37;;;;;;;7.73;2.83;;;9.80;95.40;;;;;;10316621;28;20217;-64
2023/12/31 22:42:41;;;;;;;8.98;3.63;;;9.80;94.70;;;;;;10303835;28;20263;-64
2023/12/31 22:47:46;;;;;;;8.30;2.77;;;9.80;94.80;;;;;;10312419;28;20198;-65
2023/12/31 22:52:49;;;;;;;12.40;4.53;;;9.90;94.40;;;;;;10322289;28;20272;-64
2023/12/31 22:57:54;;;;;;;9.23;3.83;;;9.90;94.10;;;;;;10314381;28;20275;-63
2023/12/31 23:02:59;;;;;;;6.63;3.77;;;9.90;94.40;;;;;;10316698;28;20252;-63
